sensor_id;sensor_type;location;lat;lon;timestamp;P1;durP1;ratioP1;P2;durP2;ratioP2
23304;SDS011;11821;51.456;8.844;2023-05-07T00:01:02;8.10;;;4.40;;
23304;SDS011;11821;51.456;8.844;2023-05-07T00:03:31;3.85;;;3.50;;
23304;SDS011;11821;51.456;8.844;2023-05-07T00:05:58;6.20;;;3.95;;
23304;SDS011;11821;51.456;8.844;2023-05-07T00:08:24;4.30;;;3.85;;
23304;SDS011;11821;51.456;8.844;2023-05-07T00:10:50;6.70;;;4.50;;
23304;SDS011;11821;51.456;8.844;2023-05-07T00:13:16;6.35;;;4.30;;
23304;SDS011;11821;51.456;8.844;2023-05-07T00:15:43;5.60;;;4.03;;
23304;SDS011;11821;51.456;8.844;2023-05-07T00:18:09;4.38;;;2.80;;
23304;SDS011;11821;51.456;8.844;2023-05-07T00:20:35;8.18;;;4.28;;
23304;SDS011;11821;51.456;8.844;2023-05-07T00:23:01;4.88;;;3.72;;
23304;SDS011;11821;51.456;8.844;2023-05-07T00:25:28;4.93;;;3.92;;
23304;SDS011;11821;51.456;8.844;2023-05-07T00:27:54;5.57;;;3.83;;
23304;SDS011;11821;51.456;8.844;2023-05-07T00:30:21;3.72;;;3.42;;
23304;SDS011;11821;51.456;8.844;2023-05-07T00:32:47;5.80;;;3.88;;
23304;SDS011;11821;51.456;8.844;2023-05-07T00:35:14;5.40;;;4.07;;
23304;SDS011;11821;51.456;8.844;2023-05-07T00:37:41;4.90;;;4.40;;
23304;SDS011;11821;51.456;8.844;2023-05-07T00:40:07;4.88;;;4.43;;
23304;SDS011;11821;51.456;8.844;2023-05-07T00:42:34;9.65;;;4.40;;
23304;SDS011;11821;51.456;8.844;2023-05-07T00:45:00;5.03;;;4.53;;
23304;SDS011;11821;51.456;8.844;2023-05-07T00:47:27;5.32;;;4.47;;
23304;SDS011;11821;51.456;8.844;2023-05-07T00:49:53;4.72;;;4.22;;
23304;SDS011;11821;51.456;8.844;2023-05-07T00:52:20;7.15;;;4.80;;
23304;SDS011;11821;51.456;8.844;2023-05-07T00:54:49;5.07;;;4.30;;
23304;SDS011;11821;51.456;8.844;2023-05-07T00:57:16;3.70;;;3.40;;
23304;SDS011;11821;51.456;8.844;2023-05-07T00:59:45;5.63;;;4.68;;
23304;SDS011;11821;51.456;8.844;2023-05-07T01:02:12;5.05;;;4.55;;
23304;SDS011;11821;51.456;8.844;2023-05-07T01:04:38;5.10;;;4.70;;
23304;SDS011;11821;51.456;8.844;2023-05-07T01:07:05;3.95;;;3.65;;
23304;SDS011;11821;51.456;8.844;2023-05-07T01:09:32;1.73;;;1.38;;
23304;SDS011;11821;51.456;8.844;2023-05-07T01:12:00;4.10;;;3.80;;
23304;SDS011;11821;51.456;8.844;2023-05-07T01:14:27;4.70;;;4.30;;
23304;SDS011;11821;51.456;8.844;2023-05-07T01:16:55;4.05;;;3.03;;
23304;SDS011;11821;51.456;8.844;2023-05-07T01:19:23;9.50;;;5.03;;
23304;SDS011;11821;51.456;8.844;2023-05-07T01:21:49;3.35;;;3.05;;
23304;SDS011;11821;51.456;8.844;2023-05-07T01:24:18;4.28;;;3.63;;
23304;SDS011;11821;51.456;8.844;2023-05-07T01:26:45;9.15;;;5.13;;
23304;SDS011;11821;51.456;8.844;2023-05-07T01:29:14;9.55;;;5.72;;
23304;SDS011;11821;51.456;8.844;2023-05-07T01:31:40;6.75;;;5.28;;
23304;SDS011;11821;51.456;8.844;2023-05-07T01:34:08;6.20;;;5.35;;
23304;SDS011;11821;51.456;8.844;2023-05-07T01:36:36;6.32;;;5.53;;
23304;SDS011;11821;51.456;8.844;2023-05-07T01:39:03;7.20;;;4.75;;
23304;SDS011;11821;51.456;8.844;2023-05-07T01:41:31;7.05;;;5.35;;
23304;SDS011;11821;51.456;8.844;2023-05-07T01:43:58;4.45;;;4.07;;
23304;SDS011;11821;51.456;8.844;2023-05-07T01:46:26;5.80;;;5.25;;
23304;SDS011;11821;51.456;8.844;2023-05-07T01:48:53;7.43;;;5.88;;
23304;SDS011;11821;51.456;8.844;2023-05-07T01:51:19;9.13;;;4.32;;
23304;SDS011;11821;51.456;8.844;2023-05-07T01:53:48;6.93;;;6.25;;
23304;SDS011;11821;51.456;8.844;2023-05-07T01:56:18;5.22;;;4.75;;
23304;SDS011;11821;51.456;8.844;2023-05-07T01:58:45;7.35;;;6.65;;
23304;SDS011;11821;51.456;8.844;2023-05-07T02:01:12;8.95;;;7.15;;
23304;SDS011;11821;51.456;8.844;2023-05-07T02:03:40;6.45;;;5.80;;
23304;SDS011;11821;51.456;8.844;2023-05-07T02:06:13;7.85;;;6.13;;
23304;SDS011;11821;51.456;8.844;2023-05-07T02:08:40;5.70;;;4.75;;
23304;SDS011;11821;51.456;8.844;2023-05-07T02:11:06;7.25;;;6.45;;
23304;SDS011;11821;51.456;8.844;2023-05-07T02:13:34;8.98;;;6.85;;
23304;SDS011;11821;51.456;8.844;2023-05-07T02:16:01;6.35;;;4.57;;
23304;SDS011;11821;51.456;8.844;2023-05-07T02:18:28;7.60;;;6.95;;
23304;SDS011;11821;51.456;8.844;2023-05-07T02:20:54;11.20;;;10.02;;
23304;SDS011;11821;51.456;8.844;2023-05-07T02:23:21;12.50;;;11.32;;
23304;SDS011;11821;51.456;8.844;2023-05-07T02:25:48;16.50;;;14.93;;
23304;SDS011;11821;51.456;8.844;2023-05-07T02:28:15;16.25;;;14.40;;
23304;SDS011;11821;51.456;8.844;2023-05-07T02:31:04;18.65;;;15.88;;
23304;SDS011;11821;51.456;8.844;2023-05-07T02:33:32;17.52;;;15.82;;
23304;SDS011;11821;51.456;8.844;2023-05-07T02:36:10;19.40;;;17.63;;
23304;SDS011;11821;51.456;8.844;2023-05-07T02:38:58;16.35;;;14.77;;
23304;SDS011;11821;51.456;8.844;2023-05-07T02:41:24;14.32;;;12.30;;
23304;SDS011;11821;51.456;8.844;2023-05-07T02:43:50;13.90;;;12.60;;
23304;SDS011;11821;51.456;8.844;2023-05-07T02:46:17;18.92;;;17.00;;
23304;SDS011;11821;51.456;8.844;2023-05-07T02:48:47;18.27;;;16.38;;
23304;SDS011;11821;51.456;8.844;2023-05-07T02:51:14;20.33;;;18.23;;
23304;SDS011;11821;51.456;8.844;2023-05-07T02:53:42;19.98;;;18.02;;
23304;SDS011;11821;51.456;8.844;2023-05-07T02:56:08;19.23;;;17.42;;
23304;SDS011;11821;51.456;8.844;2023-05-07T02:58:34;18.02;;;16.13;;
23304;SDS011;11821;51.456;8.844;2023-05-07T03:01:02;24.42;;;19.08;;
23304;SDS011;11821;51.456;8.844;2023-05-07T03:03:34;21.47;;;19.37;;
23304;SDS011;11821;51.456;8.844;2023-05-07T03:06:01;25.52;;;18.52;;
23304;SDS011;11821;51.456;8.844;2023-05-07T03:08:27;21.98;;;19.75;;
23304;SDS011;11821;51.456;8.844;2023-05-07T03:10:53;22.67;;;20.27;;
23304;SDS011;11821;51.456;8.844;2023-05-07T03:13:20;20.48;;;18.42;;
23304;SDS011;11821;51.456;8.844;2023-05-07T03:15:47;22.40;;;20.10;;
23304;SDS011;11821;51.456;8.844;2023-05-07T03:18:14;20.83;;;18.63;;
23304;SDS011;11821;51.456;8.844;2023-05-07T03:20:40;22.85;;;20.13;;
23304;SDS011;11821;51.456;8.844;2023-05-07T03:23:06;23.40;;;20.90;;
23304;SDS011;11821;51.456;8.844;2023-05-07T03:25:33;23.88;;;21.27;;
23304;SDS011;11821;51.456;8.844;2023-05-07T03:27:59;23.02;;;20.80;;
23304;SDS011;11821;51.456;8.844;2023-05-07T03:30:34;23.58;;;21.13;;
23304;SDS011;11821;51.456;8.844;2023-05-07T03:33:01;21.45;;;19.27;;
23304;SDS011;11821;51.456;8.844;2023-05-07T03:35:27;24.38;;;21.50;;
23304;SDS011;11821;51.456;8.844;2023-05-07T03:37:54;26.33;;;22.85;;
23304;SDS011;11821;51.456;8.844;2023-05-07T03:40:21;25.52;;;22.98;;
23304;SDS011;11821;51.456;8.844;2023-05-07T03:42:52;25.67;;;22.73;;
23304;SDS011;11821;51.456;8.844;2023-05-07T03:45:21;25.45;;;22.58;;
23304;SDS011;11821;51.456;8.844;2023-05-07T03:47:57;32.40;;;24.55;;
23304;SDS011;11821;51.456;8.844;2023-05-07T03:50:23;29.55;;;25.38;;
23304;SDS011;11821;51.456;8.844;2023-05-07T03:52:49;29.13;;;25.27;;
23304;SDS011;11821;51.456;8.844;2023-05-07T03:55:18;25.05;;;22.40;;
23304;SDS011;11821;51.456;8.844;2023-05-07T03:57:50;29.52;;;25.13;;
23304;SDS011;11821;51.456;8.844;2023-05-07T04:00:18;30.45;;;26.05;;
23304;SDS011;11821;51.456;8.844;2023-05-07T04:02:48;34.53;;;26.73;;
23304;SDS011;11821;51.456;8.844;2023-05-07T04:05:19;30.58;;;25.83;;
23304;SDS011;11821;51.456;8.844;2023-05-07T04:07:49;23.55;;;20.08;;
23304;SDS011;11821;51.456;8.844;2023-05-07T04:10:20;34.28;;;25.88;;
23304;SDS011;11821;51.456;8.844;2023-05-07T04:12:49;30.75;;;24.63;;
23304;SDS011;11821;51.456;8.844;2023-05-07T04:15:19;32.47;;;25.85;;
23304;SDS011;11821;51.456;8.844;2023-05-07T04:17:46;27.30;;;23.00;;
23304;SDS011;11821;51.456;8.844;2023-05-07T04:20:14;31.80;;;25.73;;
23304;SDS011;11821;51.456;8.844;2023-05-07T04:22:43;29.15;;;24.25;;
23304;SDS011;11821;51.456;8.844;2023-05-07T04:25:10;13.38;;;11.52;;
23304;SDS011;11821;51.456;8.844;2023-05-07T04:27:36;26.25;;;22.42;;
23304;SDS011;11821;51.456;8.844;2023-05-07T04:30:04;28.48;;;23.90;;
23304;SDS011;11821;51.456;8.844;2023-05-07T04:32:36;29.65;;;24.55;;
23304;SDS011;11821;51.456;8.844;2023-05-07T04:35:05;20.77;;;17.90;;
23304;SDS011;11821;51.456;8.844;2023-05-07T04:37:33;23.75;;;19.70;;
23304;SDS011;11821;51.456;8.844;2023-05-07T04:40:00;21.05;;;18.60;;
23304;SDS011;11821;51.456;8.844;2023-05-07T04:42:26;26.00;;;21.65;;
23304;SDS011;11821;51.456;8.844;2023-05-07T04:44:54;41.03;;;27.02;;
23304;SDS011;11821;51.456;8.844;2023-05-07T04:47:22;29.45;;;23.48;;
23304;SDS011;11821;51.456;8.844;2023-05-07T04:49:50;34.47;;;24.92;;
23304;SDS011;11821;51.456;8.844;2023-05-07T04:52:16;32.33;;;25.52;;
23304;SDS011;11821;51.456;8.844;2023-05-07T04:54:42;19.85;;;16.92;;
23304;SDS011;11821;51.456;8.844;2023-05-07T04:57:09;34.63;;;25.77;;
23304;SDS011;11821;51.456;8.844;2023-05-07T04:59:35;34.60;;;26.15;;
23304;SDS011;11821;51.456;8.844;2023-05-07T05:02:02;35.55;;;28.48;;
23304;SDS011;11821;51.456;8.844;2023-05-07T05:04:30;34.75;;;27.60;;
23304;SDS011;11821;51.456;8.844;2023-05-07T05:06:56;41.40;;;28.20;;
23304;SDS011;11821;51.456;8.844;2023-05-07T05:09:23;35.60;;;26.80;;
23304;SDS011;11821;51.456;8.844;2023-05-07T05:11:50;29.52;;;25.67;;
23304;SDS011;11821;51.456;8.844;2023-05-07T05:14:17;34.28;;;26.73;;
23304;SDS011;11821;51.456;8.844;2023-05-07T05:16:43;33.10;;;27.08;;
23304;SDS011;11821;51.456;8.844;2023-05-07T05:19:10;18.20;;;16.17;;
23304;SDS011;11821;51.456;8.844;2023-05-07T05:21:38;36.88;;;26.45;;
23304;SDS011;11821;51.456;8.844;2023-05-07T05:24:08;35.00;;;25.13;;
23304;SDS011;11821;51.456;8.844;2023-05-07T05:26:34;31.55;;;25.48;;
23304;SDS011;11821;51.456;8.844;2023-05-07T05:29:01;30.83;;;23.35;;
23304;SDS011;11821;51.456;8.844;2023-05-07T05:31:30;31.48;;;25.23;;
23304;SDS011;11821;51.456;8.844;2023-05-07T05:33:56;34.10;;;25.85;;
23304;SDS011;11821;51.456;8.844;2023-05-07T05:36:23;35.33;;;26.90;;
23304;SDS011;11821;51.456;8.844;2023-05-07T05:38:52;29.58;;;24.05;;
23304;SDS011;11821;51.456;8.844;2023-05-07T05:41:20;34.35;;;26.63;;
23304;SDS011;11821;51.456;8.844;2023-05-07T05:43:47;34.33;;;26.38;;
23304;SDS011;11821;51.456;8.844;2023-05-07T05:46:14;34.13;;;27.05;;
23304;SDS011;11821;51.456;8.844;2023-05-07T05:48:40;37.00;;;25.90;;
23304;SDS011;11821;51.456;8.844;2023-05-07T05:51:07;36.85;;;26.30;;
23304;SDS011;11821;51.456;8.844;2023-05-07T05:53:34;27.33;;;20.63;;
23304;SDS011;11821;51.456;8.844;2023-05-07T05:56:01;23.65;;;19.70;;
23304;SDS011;11821;51.456;8.844;2023-05-07T05:58:30;26.60;;;21.42;;
23304;SDS011;11821;51.456;8.844;2023-05-07T06:01:00;26.60;;;22.88;;
23304;SDS011;11821;51.456;8.844;2023-05-07T06:03:29;32.30;;;25.23;;
23304;SDS011;11821;51.456;8.844;2023-05-07T06:05:59;31.95;;;24.85;;
23304;SDS011;11821;51.456;8.844;2023-05-07T06:08:28;30.02;;;23.42;;
23304;SDS011;11821;51.456;8.844;2023-05-07T06:10:55;30.33;;;24.80;;
23304;SDS011;11821;51.456;8.844;2023-05-07T06:13:22;32.63;;;25.00;;
23304;SDS011;11821;51.456;8.844;2023-05-07T06:15:50;28.10;;;22.17;;
23304;SDS011;11821;51.456;8.844;2023-05-07T06:18:16;19.42;;;17.48;;
23304;SDS011;11821;51.456;8.844;2023-05-07T06:20:43;27.70;;;23.55;;
23304;SDS011;11821;51.456;8.844;2023-05-07T06:23:17;29.92;;;22.65;;
23304;SDS011;11821;51.456;8.844;2023-05-07T06:25:50;26.92;;;22.30;;
23304;SDS011;11821;51.456;8.844;2023-05-07T06:28:19;28.67;;;23.98;;
23304;SDS011;11821;51.456;8.844;2023-05-07T06:30:46;30.95;;;22.85;;
23304;SDS011;11821;51.456;8.844;2023-05-07T06:33:15;27.27;;;23.23;;
23304;SDS011;11821;51.456;8.844;2023-05-07T06:35:42;28.90;;;23.52;;
23304;SDS011;11821;51.456;8.844;2023-05-07T06:38:08;26.88;;;23.00;;
23304;SDS011;11821;51.456;8.844;2023-05-07T06:40:36;28.83;;;22.33;;
23304;SDS011;11821;51.456;8.844;2023-05-07T06:43:03;26.85;;;22.20;;
23304;SDS011;11821;51.456;8.844;2023-05-07T06:45:50;108.10;;;71.45;;
23304;SDS011;11821;51.456;8.844;2023-05-07T06:48:17;32.70;;;27.60;;
23304;SDS011;11821;51.456;8.844;2023-05-07T06:50:51;29.95;;;23.02;;
23304;SDS011;11821;51.456;8.844;2023-05-07T06:53:18;28.17;;;22.10;;
23304;SDS011;11821;51.456;8.844;2023-05-07T06:55:45;25.13;;;20.73;;
23304;SDS011;11821;51.456;8.844;2023-05-07T06:58:13;28.58;;;21.83;;
23304;SDS011;11821;51.456;8.844;2023-05-07T07:00:40;30.17;;;22.20;;
23304;SDS011;11821;51.456;8.844;2023-05-07T07:03:06;27.60;;;23.15;;
23304;SDS011;11821;51.456;8.844;2023-05-07T07:05:33;28.17;;;23.60;;
23304;SDS011;11821;51.456;8.844;2023-05-07T07:08:01;25.52;;;21.25;;
23304;SDS011;11821;51.456;8.844;2023-05-07T07:10:28;27.48;;;21.73;;
23304;SDS011;11821;51.456;8.844;2023-05-07T07:12:56;24.42;;;20.85;;
23304;SDS011;11821;51.456;8.844;2023-05-07T07:15:22;28.42;;;21.13;;
23304;SDS011;11821;51.456;8.844;2023-05-07T07:17:51;28.80;;;21.75;;
23304;SDS011;11821;51.456;8.844;2023-05-07T07:20:17;21.92;;;19.40;;
23304;SDS011;11821;51.456;8.844;2023-05-07T07:22:44;24.38;;;20.85;;
23304;SDS011;11821;51.456;8.844;2023-05-07T07:25:11;28.10;;;22.23;;
23304;SDS011;11821;51.456;8.844;2023-05-07T07:27:38;24.15;;;20.67;;
23304;SDS011;11821;51.456;8.844;2023-05-07T07:30:06;22.92;;;19.95;;
23304;SDS011;11821;51.456;8.844;2023-05-07T07:32:36;22.83;;;19.52;;
23304;SDS011;11821;51.456;8.844;2023-05-07T07:35:04;21.02;;;17.65;;
23304;SDS011;11821;51.456;8.844;2023-05-07T07:37:32;25.50;;;18.83;;
23304;SDS011;11821;51.456;8.844;2023-05-07T07:40:05;28.10;;;19.98;;
23304;SDS011;11821;51.456;8.844;2023-05-07T07:42:33;21.95;;;19.58;;
23304;SDS011;11821;51.456;8.844;2023-05-07T07:45:00;22.52;;;19.75;;
23304;SDS011;11821;51.456;8.844;2023-05-07T07:47:30;23.90;;;20.30;;
23304;SDS011;11821;51.456;8.844;2023-05-07T07:49:57;20.75;;;18.50;;
23304;SDS011;11821;51.456;8.844;2023-05-07T07:52:23;22.10;;;19.80;;
23304;SDS011;11821;51.456;8.844;2023-05-07T07:54:50;20.67;;;18.48;;
23304;SDS011;11821;51.456;8.844;2023-05-07T07:57:17;20.67;;;18.48;;
23304;SDS011;11821;51.456;8.844;2023-05-07T07:59:43;22.63;;;17.58;;
23304;SDS011;11821;51.456;8.844;2023-05-07T08:02:12;22.33;;;18.63;;
23304;SDS011;11821;51.456;8.844;2023-05-07T08:04:39;20.30;;;18.13;;
23304;SDS011;11821;51.456;8.844;2023-05-07T08:07:07;18.80;;;16.77;;
23304;SDS011;11821;51.456;8.844;2023-05-07T08:09:37;19.17;;;17.17;;
23304;SDS011;11821;51.456;8.844;2023-05-07T08:12:04;19.42;;;17.42;;
23304;SDS011;11821;51.456;8.844;2023-05-07T08:14:33;18.88;;;16.90;;
23304;SDS011;11821;51.456;8.844;2023-05-07T08:17:00;18.48;;;16.65;;
23304;SDS011;11821;51.456;8.844;2023-05-07T08:19:27;17.83;;;16.08;;
23304;SDS011;11821;51.456;8.844;2023-05-07T08:21:53;21.23;;;17.15;;
23304;SDS011;11821;51.456;8.844;2023-05-07T08:24:22;16.98;;;15.27;;
23304;SDS011;11821;51.456;8.844;2023-05-07T08:26:49;18.00;;;16.10;;
23304;SDS011;11821;51.456;8.844;2023-05-07T08:29:15;19.35;;;17.15;;
23304;SDS011;11821;51.456;8.844;2023-05-07T08:31:42;18.02;;;16.10;;
23304;SDS011;11821;51.456;8.844;2023-05-07T08:34:09;20.23;;;17.25;;
23304;SDS011;11821;51.456;8.844;2023-05-07T08:36:37;17.40;;;15.65;;
23304;SDS011;11821;51.456;8.844;2023-05-07T08:39:03;16.63;;;15.13;;
23304;SDS011;11821;51.456;8.844;2023-05-07T08:41:30;17.17;;;15.48;;
23304;SDS011;11821;51.456;8.844;2023-05-07T08:43:57;16.88;;;15.35;;
23304;SDS011;11821;51.456;8.844;2023-05-07T08:46:30;15.90;;;14.27;;
23304;SDS011;11821;51.456;8.844;2023-05-07T08:48:58;16.58;;;15.00;;
23304;SDS011;11821;51.456;8.844;2023-05-07T08:51:24;16.90;;;15.20;;
23304;SDS011;11821;51.456;8.844;2023-05-07T08:53:51;16.42;;;14.90;;
23304;SDS011;11821;51.456;8.844;2023-05-07T08:56:23;16.25;;;14.70;;
23304;SDS011;11821;51.456;8.844;2023-05-07T08:58:52;17.42;;;15.63;;
23304;SDS011;11821;51.456;8.844;2023-05-07T09:01:22;19.25;;;16.33;;
23304;SDS011;11821;51.456;8.844;2023-05-07T09:03:51;18.13;;;16.17;;
23304;SDS011;11821;51.456;8.844;2023-05-07T09:06:19;16.52;;;14.82;;
23304;SDS011;11821;51.456;8.844;2023-05-07T09:08:50;16.83;;;15.23;;
23304;SDS011;11821;51.456;8.844;2023-05-07T09:11:21;16.13;;;14.68;;
23304;SDS011;11821;51.456;8.844;2023-05-07T09:13:53;15.93;;;14.35;;
23304;SDS011;11821;51.456;8.844;2023-05-07T09:18:50;14.88;;;13.48;;
23304;SDS011;11821;51.456;8.844;2023-05-07T09:21:18;15.27;;;13.13;;
23304;SDS011;11821;51.456;8.844;2023-05-07T09:23:51;15.57;;;13.70;;
23304;SDS011;11821;51.456;8.844;2023-05-07T09:26:21;15.27;;;13.38;;
23304;SDS011;11821;51.456;8.844;2023-05-07T09:28:48;14.38;;;12.75;;
23304;SDS011;11821;51.456;8.844;2023-05-07T09:31:15;14.07;;;12.77;;
23304;SDS011;11821;51.456;8.844;2023-05-07T09:33:42;13.50;;;12.20;;
23304;SDS011;11821;51.456;8.844;2023-05-07T09:36:11;13.23;;;11.93;;
23304;SDS011;11821;51.456;8.844;2023-05-07T09:38:39;14.30;;;13.00;;
23304;SDS011;11821;51.456;8.844;2023-05-07T09:41:08;13.07;;;11.77;;
23304;SDS011;11821;51.456;8.844;2023-05-07T09:43:53;13.13;;;11.82;;
23304;SDS011;11821;51.456;8.844;2023-05-07T09:46:29;13.05;;;11.75;;
23304;SDS011;11821;51.456;8.844;2023-05-07T09:48:59;12.77;;;11.57;;
23304;SDS011;11821;51.456;8.844;2023-05-07T09:51:30;13.25;;;11.98;;
23304;SDS011;11821;51.456;8.844;2023-05-07T09:53:59;12.55;;;11.45;;
23304;SDS011;11821;51.456;8.844;2023-05-07T09:56:29;13.10;;;11.65;;
23304;SDS011;11821;51.456;8.844;2023-05-07T09:58:57;12.18;;;11.00;;
23304;SDS011;11821;51.456;8.844;2023-05-07T10:01:27;12.40;;;11.15;;
23304;SDS011;11821;51.456;8.844;2023-05-07T10:03:56;11.73;;;10.73;;
23304;SDS011;11821;51.456;8.844;2023-05-07T10:06:24;11.60;;;10.50;;
23304;SDS011;11821;51.456;8.844;2023-05-07T10:08:53;11.93;;;10.65;;
23304;SDS011;11821;51.456;8.844;2023-05-07T10:11:21;12.45;;;11.27;;
23304;SDS011;11821;51.456;8.844;2023-05-07T10:13:49;11.10;;;10.10;;
23304;SDS011;11821;51.456;8.844;2023-05-07T10:16:17;12.05;;;10.80;;
23304;SDS011;11821;51.456;8.844;2023-05-07T10:18:47;12.10;;;10.93;;
23304;SDS011;11821;51.456;8.844;2023-05-07T10:21:22;10.10;;;9.20;;
23304;SDS011;11821;51.456;8.844;2023-05-07T10:23:59;9.85;;;9.00;;
23304;SDS011;11821;51.456;8.844;2023-05-07T10:26:32;11.32;;;10.23;;
23304;SDS011;11821;51.456;8.844;2023-05-07T10:29:05;11.00;;;9.02;;
23304;SDS011;11821;51.456;8.844;2023-05-07T10:31:48;10.45;;;9.45;;
23304;SDS011;11821;51.456;8.844;2023-05-07T10:34:44;10.52;;;9.63;;
23304;SDS011;11821;51.456;8.844;2023-05-07T10:37:13;9.07;;;8.35;;
23304;SDS011;11821;51.456;8.844;2023-05-07T10:39:40;11.52;;;10.50;;
23304;SDS011;11821;51.456;8.844;2023-05-07T10:42:11;10.50;;;9.40;;
23304;SDS011;11821;51.456;8.844;2023-05-07T10:44:44;9.93;;;8.90;;
23304;SDS011;11821;51.456;8.844;2023-05-07T10:47:16;10.73;;;9.73;;
23304;SDS011;11821;51.456;8.844;2023-05-07T10:52:23;8.38;;;7.60;;
23304;SDS011;11821;51.456;8.844;2023-05-07T10:57:42;8.77;;;7.97;;
23304;SDS011;11821;51.456;8.844;2023-05-07T11:08:12;7.50;;;6.80;;
23304;SDS011;11821;51.456;8.844;2023-05-07T11:11:01;7.70;;;7.03;;
23304;SDS011;11821;51.456;8.844;2023-05-07T11:13:46;6.93;;;6.32;;
23304;SDS011;11821;51.456;8.844;2023-05-07T11:16:22;8.35;;;7.55;;
23304;SDS011;11821;51.456;8.844;2023-05-07T11:18:58;11.60;;;6.95;;
23304;SDS011;11821;51.456;8.844;2023-05-07T11:21:35;8.30;;;7.00;;
23304;SDS011;11821;51.456;8.844;2023-05-07T11:24:21;7.25;;;6.60;;
23304;SDS011;11821;51.456;8.844;2023-05-07T11:26:53;7.20;;;6.50;;
23304;SDS011;11821;51.456;8.844;2023-05-07T11:29:21;7.03;;;6.43;;
23304;SDS011;11821;51.456;8.844;2023-05-07T11:31:50;7.10;;;6.50;;
23304;SDS011;11821;51.456;8.844;2023-05-07T11:34:23;6.75;;;6.15;;
23304;SDS011;11821;51.456;8.844;2023-05-07T11:36:56;6.38;;;5.70;;
23304;SDS011;11821;51.456;8.844;2023-05-07T11:39:36;8.45;;;6.30;;
23304;SDS011;11821;51.456;8.844;2023-05-07T11:42:02;7.28;;;6.40;;
23304;SDS011;11821;51.456;8.844;2023-05-07T11:44:44;6.28;;;5.75;;
23304;SDS011;11821;51.456;8.844;2023-05-07T11:47:12;6.65;;;6.05;;
23304;SDS011;11821;51.456;8.844;2023-05-07T11:52:10;6.65;;;6.03;;
23304;SDS011;11821;51.456;8.844;2023-05-07T11:54:38;6.22;;;5.72;;
23304;SDS011;11821;51.456;8.844;2023-05-07T11:57:04;6.53;;;6.03;;
23304;SDS011;11821;51.456;8.844;2023-05-07T11:59:39;5.85;;;5.35;;
23304;SDS011;11821;51.456;8.844;2023-05-07T12:02:06;7.47;;;5.70;;
23304;SDS011;11821;51.456;8.844;2023-05-07T12:04:33;5.72;;;4.95;;
23304;SDS011;11821;51.456;8.844;2023-05-07T12:06:59;5.15;;;4.65;;
23304;SDS011;11821;51.456;8.844;2023-05-07T12:09:26;6.40;;;4.60;;
23304;SDS011;11821;51.456;8.844;2023-05-07T12:11:53;5.43;;;4.97;;
23304;SDS011;11821;51.456;8.844;2023-05-07T12:14:19;5.53;;;5.13;;
23304;SDS011;11821;51.456;8.844;2023-05-07T12:16:45;4.47;;;4.07;;
23304;SDS011;11821;51.456;8.844;2023-05-07T12:19:12;4.50;;;4.20;;
23304;SDS011;11821;51.456;8.844;2023-05-07T12:21:39;4.65;;;4.35;;
23304;SDS011;11821;51.456;8.844;2023-05-07T12:24:06;4.55;;;4.25;;
23304;SDS011;11821;51.456;8.844;2023-05-07T12:26:37;4.80;;;4.40;;
23304;SDS011;11821;51.456;8.844;2023-05-07T12:29:04;5.47;;;4.90;;
23304;SDS011;11821;51.456;8.844;2023-05-07T12:31:35;4.57;;;4.18;;
23304;SDS011;11821;51.456;8.844;2023-05-07T12:34:02;4.22;;;3.63;;
23304;SDS011;11821;51.456;8.844;2023-05-07T12:36:36;4.60;;;4.20;;
23304;SDS011;11821;51.456;8.844;2023-05-07T12:39:04;4.65;;;4.25;;
23304;SDS011;11821;51.456;8.844;2023-05-07T12:41:35;5.10;;;4.15;;
23304;SDS011;11821;51.456;8.844;2023-05-07T12:44:23;4.10;;;3.58;;
23304;SDS011;11821;51.456;8.844;2023-05-07T12:46:50;4.22;;;3.85;;
23304;SDS011;11821;51.456;8.844;2023-05-07T12:49:17;3.95;;;3.65;;
23304;SDS011;11821;51.456;8.844;2023-05-07T12:51:43;3.75;;;3.45;;
23304;SDS011;11821;51.456;8.844;2023-05-07T12:54:11;4.38;;;4.07;;
23304;SDS011;11821;51.456;8.844;2023-05-07T12:59:44;3.95;;;3.65;;
23304;SDS011;11821;51.456;8.844;2023-05-07T13:02:10;4.03;;;3.60;;
23304;SDS011;11821;51.456;8.844;2023-05-07T13:04:38;4.20;;;3.90;;
23304;SDS011;11821;51.456;8.844;2023-05-07T13:07:04;4.20;;;3.67;;
23304;SDS011;11821;51.456;8.844;2023-05-07T13:09:30;4.30;;;4.00;;
23304;SDS011;11821;51.456;8.844;2023-05-07T13:12:02;4.63;;;4.22;;
23304;SDS011;11821;51.456;8.844;2023-05-07T13:14:29;4.85;;;4.38;;
23304;SDS011;11821;51.456;8.844;2023-05-07T13:17:01;4.38;;;3.90;;
23304;SDS011;11821;51.456;8.844;2023-05-07T13:19:27;4.57;;;3.67;;
23304;SDS011;11821;51.456;8.844;2023-05-07T13:21:53;4.40;;;4.00;;
23304;SDS011;11821;51.456;8.844;2023-05-07T13:24:20;4.82;;;4.43;;
23304;SDS011;11821;51.456;8.844;2023-05-07T13:26:46;5.15;;;4.75;;
23304;SDS011;11821;51.456;8.844;2023-05-07T13:29:12;4.45;;;4.05;;
23304;SDS011;11821;51.456;8.844;2023-05-07T13:31:38;6.75;;;5.30;;
23304;SDS011;11821;51.456;8.844;2023-05-07T13:34:08;5.43;;;4.97;;
23304;SDS011;11821;51.456;8.844;2023-05-07T13:36:34;5.65;;;5.00;;
23304;SDS011;11821;51.456;8.844;2023-05-07T13:39:03;5.78;;;5.28;;
23304;SDS011;11821;51.456;8.844;2023-05-07T13:41:29;5.60;;;5.20;;
23304;SDS011;11821;51.456;8.844;2023-05-07T13:43:55;5.32;;;4.93;;
23304;SDS011;11821;51.456;8.844;2023-05-07T13:46:21;5.38;;;4.97;;
23304;SDS011;11821;51.456;8.844;2023-05-07T13:48:48;5.93;;;5.40;;
23304;SDS011;11821;51.456;8.844;2023-05-07T13:51:14;6.50;;;6.00;;
23304;SDS011;11821;51.456;8.844;2023-05-07T13:53:40;6.38;;;5.88;;
23304;SDS011;11821;51.456;8.844;2023-05-07T13:56:06;7.18;;;6.45;;
23304;SDS011;11821;51.456;8.844;2023-05-07T13:58:32;5.40;;;5.00;;
23304;SDS011;11821;51.456;8.844;2023-05-07T14:00:59;6.93;;;6.43;;
23304;SDS011;11821;51.456;8.844;2023-05-07T14:03:25;7.18;;;6.57;;
23304;SDS011;11821;51.456;8.844;2023-05-07T14:05:51;6.25;;;5.85;;
23304;SDS011;11821;51.456;8.844;2023-05-07T14:08:17;7.28;;;6.68;;
23304;SDS011;11821;51.456;8.844;2023-05-07T14:10:45;7.38;;;6.68;;
23304;SDS011;11821;51.456;8.844;2023-05-07T14:13:12;6.80;;;6.20;;
23304;SDS011;11821;51.456;8.844;2023-05-07T14:15:38;6.70;;;6.10;;
23304;SDS011;11821;51.456;8.844;2023-05-07T14:18:04;6.53;;;5.97;;
23304;SDS011;11821;51.456;8.844;2023-05-07T14:20:31;7.00;;;5.93;;
23304;SDS011;11821;51.456;8.844;2023-05-07T14:22:57;5.95;;;5.55;;
23304;SDS011;11821;51.456;8.844;2023-05-07T14:25:24;6.97;;;5.97;;
23304;SDS011;11821;51.456;8.844;2023-05-07T14:27:51;6.95;;;6.25;;
23304;SDS011;11821;51.456;8.844;2023-05-07T14:30:17;6.03;;;5.55;;
23304;SDS011;11821;51.456;8.844;2023-05-07T14:32:43;6.80;;;6.20;;
23304;SDS011;11821;51.456;8.844;2023-05-07T14:35:10;6.53;;;5.93;;
23304;SDS011;11821;51.456;8.844;2023-05-07T14:37:36;7.45;;;6.78;;
23304;SDS011;11821;51.456;8.844;2023-05-07T14:40:02;6.57;;;5.80;;
23304;SDS011;11821;51.456;8.844;2023-05-07T14:42:28;6.68;;;6.18;;
23304;SDS011;11821;51.456;8.844;2023-05-07T14:44:55;7.10;;;6.30;;
23304;SDS011;11821;51.456;8.844;2023-05-07T14:47:21;7.05;;;6.53;;
23304;SDS011;11821;51.456;8.844;2023-05-07T14:49:47;7.38;;;6.63;;
23304;SDS011;11821;51.456;8.844;2023-05-07T14:52:13;7.22;;;6.70;;
23304;SDS011;11821;51.456;8.844;2023-05-07T14:54:40;6.43;;;5.88;;
23304;SDS011;11821;51.456;8.844;2023-05-07T14:57:06;6.82;;;6.15;;
23304;SDS011;11821;51.456;8.844;2023-05-07T14:59:35;6.60;;;6.10;;
23304;SDS011;11821;51.456;8.844;2023-05-07T15:02:03;7.43;;;6.78;;